Time;durP1;ratioP1;P1;durP2;ratioP2;P2;SDS_P1;SDS_P2;PMS_P1;PMS_P2;Temp;Humidity;BMP_temperature;BMP_pressure;BME280_temperature;BME280_humidity;BME280_pressure;Samples;Min_cycle;Max_cycle;Signal;HPM_P1;HPM_P2
2022/02/01 00:01:50;;;;;;;15.88;0.05;;;3.00;99.90;;;;;;5033591;28;20105;-77
2022/02/01 00:04:31;;;;;;;9.20;0.20;;;3.00;99.90;;;;;;5032685;28;20079;-77
2022/02/01 00:07:08;;;;;;;11.55;2.03;;;2.90;99.90;;;;;;5032654;28;20026;-77
2022/02/01 00:20:10;;;;;;;10.40;0.57;;;2.90;99.90;;;;;;5033814;28;20033;-76
2022/02/01 00:36:00;;;;;;;12.13;0.15;;;3.30;99.90;;;;;;5037401;28;20033;-77
2022/02/01 00:38:46;;;;;;;5.60;0.20;;;3.40;99.90;;;;;;5035996;28;20478;-77
2022/02/01 00:41:13;;;;;;;6.63;0.20;;;3.50;99.90;;;;;;5037395;28;20117;-77
2022/02/01 00:43:39;;;;;;;5.28;0.05;;;3.60;99.90;;;;;;5035412;28;20022;-77
2022/02/01 00:46:04;;;;;;;5.53;0.00;;;3.70;99.90;;;;;;5035627;28;20101;-77
2022/02/01 00:48:30;;;;;;;7.45;0.10;;;3.80;99.90;;;;;;5036859;28;20026;-77
2022/02/01 00:50:57;;;;;;;13.25;0.85;;;3.80;99.90;;;;;;5035451;28;20025;-77
2022/02/01 00:53:27;;;;;;;6.68;0.10;;;3.80;99.90;;;;;;5035539;28;20100;-77
2022/02/01 00:55:54;;;;;;;13.50;0.50;;;3.90;99.90;;;;;;5036822;28;20028;-77
2022/02/01 00:58:21;;;;;;;6.18;0.20;;;3.90;99.90;;;;;;5035117;28;20032;-77
2022/02/01 01:00:47;;;;;;;8.60;0.43;;;3.90;99.90;;;;;;5035387;28;20047;-77
2022/02/01 01:03:12;;;;;;;3.33;0.00;;;3.80;99.90;;;;;;5036522;28;20108;-77
2022/02/01 01:05:38;;;;;;;12.32;0.85;;;3.80;99.90;;;;;;5035167;28;20018;-77
2022/02/01 01:08:04;;;;;;;5.07;0.20;;;3.80;99.90;;;;;;5036392;28;20013;-77
2022/02/01 01:10:30;;;;;;;5.80;0.00;;;3.90;99.90;;;;;;5036342;28;20029;-77
2022/02/01 01:13:48;;;;;;;3.13;0.00;;;3.90;99.90;;;;;;5036497;28;20398;-78
2022/02/01 01:16:06;;;;;;;5.50;0.25;;;5.80;99.90;;;;;;5034148;28;20036;-78
2022/02/01 01:45:46;;;;;;;6.45;0.10;;;4.10;99.90;;;;;;5035941;28;20037;-77
2022/02/01 01:53:40;;;;;;;5.90;0.38;;;4.30;99.90;;;;;;5036322;28;20052;-77
2022/02/01 01:56:06;;;;;;;4.90;0.55;;;4.30;99.90;;;;;;5034263;28;20025;-77
2022/02/01 01:58:31;;;;;;;4.35;0.00;;;4.30;99.90;;;;;;5035385;28;20052;-76
2022/02/01 02:03:22;;;;;;;8.32;0.00;;;4.30;99.90;;;;;;5035677;28;20052;-77
2022/02/01 02:05:48;;;;;;;6.50;0.28;;;4.30;99.90;;;;;;5035126;28;20022;-76
2022/02/01 02:08:14;;;;;;;4.90;0.47;;;4.30;99.90;;;;;;5034995;28;20021;-77
2022/02/01 02:10:52;;;;;;;0.95;0.10;;;4.20;99.90;;;;;;5033855;28;20479;-77
2022/02/01 02:15:58;;;;;;;;;;;4.20;99.90;;;;;;5035766;28;20462;-77
2022/02/01 02:18:32;;;;;;;5.88;0.00;;;4.20;99.90;;;;;;5034116;28;19905;-77
2022/02/01 02:21:03;;;;;;;7.80;0.10;;;4.30;99.90;;;;;;5035374;28;20026;-77
2022/02/01 02:23:29;;;;;;;1.50;0.00;;;4.20;99.90;;;;;;5033752;28;20021;-77
2022/02/01 02:25:55;;;;;;;5.32;0.80;;;4.30;99.90;;;;;;5033526;28;20021;-77
2022/02/01 02:28:21;;;;;;;11.88;0.25;;;4.30;99.90;;;;;;5035032;28;20021;-77
2022/02/01 02:30:49;;;;;;;6.35;0.20;;;4.30;99.90;;;;;;5033577;28;20025;-76
2022/02/01 02:33:17;;;;;;;7.75;0.52;;;4.20;99.90;;;;;;5033412;28;20026;-77
2022/02/01 02:36:08;;;;;;;5.55;0.20;;;4.20;99.90;;;;;;5033429;28;20514;-77
2022/02/01 02:38:40;;;;;;;8.13;0.52;;;4.20;99.90;;;;;;5034686;28;20026;-77
2022/02/01 02:46:35;;;;;;;3.15;0.05;;;4.10;99.90;;;;;;5034111;28;20044;-76
2022/02/01 02:49:04;;;;;;;3.72;0.00;;;4.10;99.90;;;;;;5034158;28;20022;-77
2022/02/01 02:51:30;;;;;;;6.78;0.35;;;4.10;99.90;;;;;;5034227;28;20045;-76
2022/02/01 02:53:55;;;;;;;13.13;0.30;;;4.10;99.90;;;;;;5033057;28;20057;-76
2022/02/01 02:56:21;;;;;;;7.03;0.00;;;4.20;99.90;;;;;;5033094;28;20112;-76
2022/02/01 02:58:53;;;;;;;8.07;0.68;;;4.20;99.90;;;;;;5034502;28;20018;-76
2022/02/01 03:01:19;;;;;;;6.80;0.52;;;4.20;99.90;;;;;;5034525;28;20486;-76
2022/02/01 03:03:45;;;;;;;9.63;0.30;;;4.20;99.90;;;;;;5032582;28;20497;-76
2022/02/01 03:06:11;;;;;;;8.93;0.57;;;4.20;99.90;;;;;;5034480;28;20083;-76
2022/02/01 03:08:37;;;;;;;7.07;0.40;;;4.30;99.90;;;;;;5034317;28;20394;-76
2022/02/01 03:11:09;;;;;;;9.27;0.47;;;4.30;99.90;;;;;;5032467;28;20026;-76
2022/02/01 03:13:35;;;;;;;10.50;0.10;;;4.30;99.90;;;;;;5032815;28;20021;-77
2022/02/01 03:16:25;;;;;;;11.73;0.10;;;4.30;99.90;;;;;;5034028;28;20098;-77
2022/02/01 03:21:36;;;;;;;5.95;0.05;;;4.30;99.90;;;;;;5034599;28;20466;-78
2022/02/01 03:24:02;;;;;;;7.07;1.25;;;4.30;99.90;;;;;;5034070;28;20021;-77
2022/02/01 03:26:28;;;;;;;8.90;0.40;;;4.40;99.90;;;;;;5033086;28;20060;-78
2022/02/01 03:28:53;;;;;;;7.63;0.20;;;4.30;99.90;;;;;;5033866;28;20029;-77
2022/02/01 03:31:19;;;;;;;5.35;1.05;;;4.40;99.90;;;;;;5032778;28;20014;-77
2022/02/01 03:33:45;;;;;;;4.78;0.00;;;4.40;99.90;;;;;;5032587;28;20024;-77
2022/02/01 03:36:11;;;;;;;9.95;1.25;;;4.40;99.90;;;;;;5034102;28;20036;-78
2022/02/01 03:38:37;;;;;;;10.80;0.57;;;4.40;99.90;;;;;;5034042;28;20022;-77
2022/02/01 03:41:03;;;;;;;4.25;0.63;;;4.50;99.90;;;;;;5032332;28;20049;-77
2022/02/01 03:43:28;;;;;;;13.90;0.28;;;4.50;99.90;;;;;;5034010;28;20119;-77
2022/02/01 03:45:54;;;;;;;12.48;0.30;;;4.50;99.90;;;;;;5033722;28;20026;-77
2022/02/01 03:48:20;;;;;;;8.43;0.70;;;4.50;99.90;;;;;;5032612;28;20064;-77
2022/02/01 03:50:45;;;;;;;4.38;0.50;;;4.50;99.90;;;;;;5033357;28;20034;-77
2022/02/01 03:53:11;;;;;;;5.65;0.10;;;4.50;99.90;;;;;;5032524;28;20387;-77
2022/02/01 03:55:37;;;;;;;11.30;0.47;;;4.60;99.90;;;;;;5033893;28;20430;-77
2022/02/01 03:58:03;;;;;;;6.70;0.28;;;4.50;99.90;;;;;;5032603;28;20125;-77
2022/02/01 04:00:29;;;;;;;6.88;0.35;;;4.50;99.90;;;;;;5036142;28;20080;-77
2022/02/01 04:02:55;;;;;;;3.92;0.20;;;4.50;99.90;;;;;;5035985;28;20014;-77
2022/02/01 04:05:21;;;;;;;4.57;0.38;;;4.50;99.90;;;;;;5038093;28;20460;-77
2022/02/01 04:07:48;;;;;;;12.80;0.22;;;4.60;99.90;;;;;;5037731;28;20022;-77
2022/02/01 04:10:14;;;;;;;9.77;0.47;;;4.50;99.90;;;;;;5037535;28;20115;-78
2022/02/01 04:12:41;;;;;;;6.60;0.52;;;4.60;99.90;;;;;;5037983;28;20123;-77
2022/02/01 04:15:08;;;;;;;11.27;0.10;;;4.60;99.90;;;;;;5036003;28;20108;-77
2022/02/01 04:17:34;;;;;;;14.25;0.73;;;4.70;99.90;;;;;;5037490;28;20037;-77
2022/02/01 04:20:00;;;;;;;1.20;0.25;;;4.70;99.90;;;;;;5035897;28;20018;-77
2022/02/01 04:22:26;;;;;;;4.20;0.00;;;4.70;99.90;;;;;;5035990;28;20553;-77
2022/02/01 04:24:51;;;;;;;14.27;1.48;;;4.70;99.90;;;;;;5036184;28;20045;-77
2022/02/01 04:27:32;;;;;;;4.10;0.32;;;4.70;99.90;;;;;;5037130;28;20021;-77
2022/02/01 04:30:07;;;;;;;10.77;1.00;;;4.70;99.90;;;;;;5036179;28;20049;-77
2022/02/01 04:32:34;;;;;;;6.05;0.45;;;4.70;99.90;;;;;;5037221;28;20025;-76
2022/02/01 04:34:59;;;;;;;5.75;0.20;;;4.70;99.90;;;;;;5037324;28;20044;-76
2022/02/01 04:37:29;;;;;;;18.08;0.38;;;4.70;99.90;;;;;;5035989;28;20483;-76
2022/02/01 04:39:55;;;;;;;3.70;0.47;;;4.70;99.90;;;;;;5036279;28;20037;-76
2022/02/01 04:42:21;;;;;;;5.18;0.13;;;4.70;99.90;;;;;;5037371;28;20083;-76
2022/02/01 04:44:46;;;;;;;8.10;0.10;;;4.80;99.90;;;;;;5035845;28;20029;-77
2022/02/01 04:47:12;;;;;;;12.32;1.20;;;4.80;99.90;;;;;;5037116;28;20018;-77
2022/02/01 04:49:38;;;;;;;10.30;0.10;;;4.80;99.90;;;;;;5035800;28;20064;-77
2022/02/01 04:52:03;;;;;;;4.90;0.25;;;4.80;99.90;;;;;;5035576;28;20364;-77
2022/02/01 04:54:29;;;;;;;4.97;0.17;;;4.80;99.90;;;;;;5035679;28;20030;-77
2022/02/01 04:56:55;;;;;;;11.85;1.60;;;4.80;99.90;;;;;;5035570;28;20021;-77
2022/02/01 04:59:20;;;;;;;8.52;0.10;;;4.80;99.90;;;;;;5036673;28;20033;-77
2022/02/01 05:01:46;;;;;;;2.67;0.13;;;4.80;99.90;;;;;;5035917;28;20022;-76
2022/02/01 05:04:17;;;;;;;6.65;0.45;;;4.90;99.90;;;;;;5036403;28;20434;-77
2022/02/01 05:06:43;;;;;;;5.55;0.13;;;4.80;99.90;;;;;;5036832;28;20053;-76
2022/02/01 05:09:10;;;;;;;10.70;0.50;;;4.80;99.90;;;;;;5036465;28;20014;-77
2022/02/01 05:11:35;;;;;;;6.00;0.32;;;4.90;99.90;;;;;;5035685;28;20483;-77
2022/02/01 05:14:12;;;;;;;7.60;0.35;;;4.90;99.90;;;;;;5036844;28;20018;-77
2022/02/01 05:16:58;;;;;;;8.95;0.25;;;4.90;99.90;;;;;;5035457;28;20018;-78
2022/02/01 05:21:56;;;;;;;4.25;0.40;;;4.80;99.90;;;;;;5037042;28;20029;-78
2022/02/01 05:24:24;;;;;;;4.28;0.13;;;4.80;99.90;;;;;;5035915;28;20101;-78
2022/02/01 05:26:49;;;;;;;6.45;0.20;;;4.80;99.90;;;;;;5036347;28;20064;-78
2022/02/01 05:29:17;;;;;;;6.45;0.38;;;4.80;99.90;;;;;;5034804;28;20434;-78
2022/02/01 05:31:44;;;;;;;10.85;0.60;;;4.80;99.90;;;;;;5034990;28;20479;-78
2022/02/01 05:34:09;;;;;;;5.57;0.10;;;4.80;99.90;;;;;;5034459;28;20147;-78
2022/02/01 05:36:35;;;;;;;10.32;1.02;;;4.80;99.90;;;;;;5036225;28;20102;-78
2022/02/01 05:39:11;;;;;;;7.63;0.82;;;4.80;99.90;;;;;;5036494;28;20033;-78
2022/02/01 05:41:36;;;;;;;9.13;0.50;;;4.80;99.90;;;;;;5036557;28;20020;-78
2022/02/01 05:44:02;;;;;;;11.02;0.73;;;4.80;99.90;;;;;;5034696;28;20029;-78
2022/02/01 05:46:27;;;;;;;11.63;0.80;;;4.80;99.90;;;;;;5035611;28;20025;-78
2022/02/01 05:48:53;;;;;;;10.88;0.70;;;4.80;99.90;;;;;;5036044;28;20061;-78
2022/02/01 05:51:18;;;;;;;7.90;1.27;;;4.90;99.90;;;;;;5035464;28;20025;-78
2022/02/01 05:53:44;;;;;;;15.05;1.25;;;5.00;99.90;;;;;;5035694;28;20028;-78
2022/02/01 05:56:09;;;;;;;11.55;0.70;;;4.90;99.90;;;;;;5034075;28;20014;-78
2022/02/01 05:58:35;;;;;;;9.93;1.17;;;5.00;99.90;;;;;;5035835;28;20033;-78
2022/02/01 06:01:01;;;;;;;11.13;1.27;;;5.00;99.90;;;;;;5033688;28;20037;-78
2022/02/01 06:03:26;;;;;;;19.33;1.58;;;5.00;99.90;;;;;;5034077;28;20037;-78
2022/02/01 06:05:52;;;;;;;11.07;1.00;;;5.00;99.90;;;;;;5035429;28;20029;-78
2022/02/01 06:08:18;;;;;;;15.65;1.02;;;5.00;99.90;;;;;;5036154;28;20060;-78
2022/02/01 06:10:43;;;;;;;7.25;0.73;;;5.00;99.90;;;;;;5035199;28;20499;-78
2022/02/01 06:13:09;;;;;;;12.80;1.60;;;5.00;99.90;;;;;;5034000;28;20104;-78
2022/02/01 06:15:37;;;;;;;14.45;2.00;;;5.00;99.90;;;;;;5033442;28;20124;-78
2022/02/01 06:18:03;;;;;;;12.32;1.70;;;5.00;99.90;;;;;;5033797;28;20021;-78
2022/02/01 06:20:29;;;;;;;10.25;1.95;;;5.50;99.90;;;;;;5033980;28;20120;-78
2022/02/01 06:22:54;;;;;;;7.10;1.20;;;5.00;99.90;;;;;;5032540;28;20548;-78
2022/02/01 06:25:37;;;;;;;19.73;1.77;;;5.10;99.90;;;;;;5034991;28;20048;-77
2022/02/01 06:28:03;;;;;;;9.70;2.28;;;5.10;99.90;;;;;;5035355;28;20022;-74
2022/02/01 06:30:28;;;;;;;7.57;1.75;;;5.00;99.90;;;;;;5035236;28;20036;-74
2022/02/01 06:32:54;;;;;;;10.98;2.25;;;5.00;99.90;;;;;;5035037;28;20025;-74
2022/02/01 06:35:22;;;;;;;15.38;3.78;;;4.90;99.90;;;;;;5034584;28;20132;-75
2022/02/01 06:37:47;;;;;;;9.32;2.22;;;4.90;99.90;;;;;;5034212;28;20510;-74
2022/02/01 06:40:14;;;;;;;17.25;3.67;;;4.90;99.90;;;;;;5034903;28;20057;-74
2022/02/01 06:42:40;;;;;;;18.17;2.08;;;4.90;99.90;;;;;;5034861;28;20025;-74
2022/02/01 06:45:06;;;;;;;10.68;2.33;;;5.00;99.90;;;;;;5034941;28;20056;-74
2022/02/01 06:47:32;;;;;;;17.05;2.58;;;5.00;99.90;;;;;;5033613;28;20025;-74
2022/02/01 06:49:57;;;;;;;10.82;2.88;;;4.90;99.90;;;;;;5034900;28;20018;-75
2022/02/01 06:52:23;;;;;;;17.00;2.33;;;4.90;99.90;;;;;;5034484;28;20087;-75
2022/02/01 06:54:49;;;;;;;11.93;2.70;;;5.00;99.90;;;;;;5033322;28;20107;-73
2022/02/01 06:57:14;;;;;;;18.30;3.40;;;4.90;99.90;;;;;;5034455;28;20033;-74
2022/02/01 06:59:40;;;;;;;12.32;2.95;;;4.90;99.90;;;;;;5034885;28;20479;-76
2022/02/01 07:02:06;;;;;;;14.10;2.10;;;5.00;99.90;;;;;;5034136;28;20053;-73
2022/02/01 07:04:32;;;;;;;5.22;1.20;;;5.00;99.90;;;;;;5034934;28;20022;-73
2022/02/01 07:06:57;;;;;;;13.27;2.95;;;5.00;99.90;;;;;;5034330;28;20105;-74
2022/02/01 07:09:23;;;;;;;13.90;3.55;;;5.00;99.90;;;;;;5034275;28;20029;-73
2022/02/01 07:11:49;;;;;;;12.23;3.58;;;5.00;99.90;;;;;;5034344;28;20100;-73
2022/02/01 07:14:14;;;;;;;11.90;3.00;;;5.00;99.90;;;;;;5035007;28;20097;-73
2022/02/01 07:16:40;;;;;;;7.65;2.25;;;5.00;99.90;;;;;;5034986;28;20032;-73
2022/02/01 07:19:06;;;;;;;16.63;4.65;;;5.00;99.90;;;;;;5035005;28;20021;-73
2022/02/01 07:21:31;;;;;;;16.83;4.22;;;5.00;99.90;;;;;;5034935;28;20091;-73
2022/02/01 07:23:57;;;;;;;13.90;4.00;;;5.00;99.90;;;;;;5033948;28;20030;-75
2022/02/01 07:26:23;;;;;;;16.92;4.03;;;5.00;99.90;;;;;;5032853;28;20114;-74
2022/02/01 07:28:49;;;;;;;15.63;4.95;;;5.00;99.90;;;;;;5033744;28;20025;-75
2022/02/01 07:31:14;;;;;;;15.43;4.68;;;5.10;99.90;;;;;;5032692;28;20022;-75
2022/02/01 07:33:40;;;;;;;15.82;5.85;;;5.10;99.90;;;;;;5033669;28;20025;-75
2022/02/01 07:36:07;;;;;;;11.85;4.68;;;5.10;99.90;;;;;;5034672;28;20060;-74
2022/02/01 07:38:33;;;;;;;30.98;5.53;;;5.20;99.90;;;;;;5033397;28;20021;-74
2022/02/01 07:40:59;;;;;;;16.42;6.38;;;5.20;99.90;;;;;;5034165;28;20053;-74
2022/02/01 07:43:31;;;;;;;13.68;5.45;;;5.20;99.90;;;;;;5034340;28;20021;-75
2022/02/01 07:46:01;;;;;;;23.83;5.90;;;5.20;99.90;;;;;;5034614;28;20057;-75
2022/02/01 07:48:27;;;;;;;16.95;5.50;;;5.20;99.90;;;;;;5033602;28;20398;-75
2022/02/01 07:50:52;;;;;;;21.60;5.95;;;5.20;99.90;;;;;;5033485;28;20030;-75
2022/02/01 07:53:18;;;;;;;15.30;5.55;;;5.30;99.90;;;;;;5032289;28;20040;-74
2022/02/01 07:55:43;;;;;;;16.20;5.68;;;5.30;99.90;;;;;;5033642;28;20029;-75
2022/02/01 07:58:09;;;;;;;16.63;5.03;;;5.40;99.90;;;;;;5033293;28;20026;-74
2022/02/01 08:00:34;;;;;;;15.77;4.97;;;5.40;99.90;;;;;;5033810;28;20026;-74
2022/02/01 08:03:00;;;;;;;20.92;5.35;;;5.40;99.90;;;;;;5033559;28;20021;-74
2022/02/01 08:05:29;;;;;;;15.80;5.60;;;5.50;99.90;;;;;;5033967;28;20025;-74
2022/02/01 08:07:55;;;;;;;13.63;4.93;;;5.50;99.90;;;;;;5032562;28;20036;-74
2022/02/01 08:10:21;;;;;;;11.73;5.00;;;5.60;99.90;;;;;;5033337;28;20104;-74
2022/02/01 08:20:31;;;;;;;7.97;3.78;;;5.70;99.90;;;;;;5033223;28;20172;-74
2022/02/01 08:23:02;;;;;;;9.55;3.33;;;5.80;99.90;;;;;;5032013;28;20026;-75
2022/02/01 08:25:31;;;;;;;12.80;4.22;;;5.80;99.90;;;;;;5033094;28;20071;-75
2022/02/01 08:28:00;;;;;;;6.78;2.88;;;5.80;99.90;;;;;;5032866;28;20045;-75
2022/02/01 08:30:26;;;;;;;;;;;5.90;99.90;;;;;;5033368;28;20028;-75
2022/02/01 08:32:52;;;;;;;8.82;2.92;;;5.90;99.90;;;;;;5032752;28;19905;-75
2022/02/01 08:35:17;;;;;;;11.05;3.38;;;5.90;99.90;;;;;;5031466;28;20025;-75
2022/02/01 08:37:43;;;;;;;4.22;2.13;;;6.00;99.90;;;;;;5032726;28;20504;-75
2022/02/01 08:40:09;;;;;;;3.92;2.17;;;6.00;99.90;;;;;;5032829;28;20083;-74
2022/02/01 08:42:35;;;;;;;2.67;1.48;;;6.00;99.90;;;;;;5032755;28;20017;-74
2022/02/01 08:45:03;;;;;;;2.47;1.40;;;6.10;99.90;;;;;;5033054;28;20037;-74
2022/02/01 08:47:29;;;;;;;4.32;1.08;;;6.10;99.90;;;;;;5035467;28;20048;-74
2022/02/01 08:49:55;;;;;;;3.95;1.58;;;6.10;99.90;;;;;;5036187;28;20083;-74
2022/02/01 08:52:35;;;;;;;3.45;1.50;;;6.10;99.90;;;;;;5036212;28;20029;-75
2022/02/01 08:55:02;;;;;;;2.63;1.27;;;6.10;99.90;;;;;;5036275;28;20029;-75
2022/02/01 08:57:31;;;;;;;2.33;1.45;;;6.20;99.90;;;;;;5036458;28;20485;-75
2022/02/01 09:00:05;;;;;;;3.65;2.22;;;6.20;99.90;;;;;;5036473;28;20387;-75
2022/02/01 09:02:31;;;;;;;5.28;2.33;;;6.30;99.90;;;;;;5036032;28;20387;-76
2022/02/01 09:04:57;;;;;;;4.30;2.10;;;6.30;99.90;;;;;;5034792;28;20028;-75
2022/02/01 09:07:24;;;;;;;4.03;1.73;;;6.30;99.90;;;;;;5036499;28;20026;-75
2022/02/01 09:09:50;;;;;;;3.83;2.55;;;6.40;99.90;;;;;;5036166;28;20111;-76
2022/02/01 09:12:18;;;;;;;2.08;1.80;;;6.50;99.90;;;;;;5034586;28;20390;-76
2022/02/01 09:14:46;;;;;;;3.53;2.08;;;6.50;99.90;;;;;;5035969;28;20025;-76
2022/02/01 09:17:14;;;;;;;4.32;1.58;;;6.50;99.90;;;;;;5036255;28;20033;-76
2022/02/01 09:19:41;;;;;;;4.63;2.35;;;6.50;99.90;;;;;;5035620;28;20027;-75
2022/02/01 09:22:07;;;;;;;7.72;2.40;;;6.60;99.90;;;;;;5035692;28;20013;-76
2022/02/01 09:24:32;;;;;;;5.57;2.28;;;6.60;99.90;;;;;;5036180;28;20438;-76
2022/02/01 09:26:59;;;;;;;4.80;1.88;;;6.60;99.90;;;;;;5034416;28;20045;-76
2022/02/01 09:29:25;;;;;;;3.67;1.00;;;6.70;99.90;;;;;;5035669;28;20025;-76
2022/02/01 09:31:53;;;;;;;2.40;0.90;;;6.70;99.90;;;;;;5036323;28;20013;-76
2022/02/01 09:34:19;;;;;;;4.85;0.90;;;6.70;99.90;;;;;;5036296;28;20017;-75
2022/02/01 09:36:45;;;;;;;4.38;0.80;;;6.80;99.90;;;;;;5034459;28;20021;-76
2022/02/01 09:39:11;;;;;;;2.42;0.90;;;6.80;99.90;;;;;;5036171;28;20024;-75
2022/02/01 09:41:38;;;;;;;2.83;1.10;;;6.80;99.90;;;;;;5035847;28;20018;-76
2022/02/01 09:44:04;;;;;;;3.55;0.95;;;6.80;99.90;;;;;;5064227;23;20065;-94
2022/02/01 09:46:30;;;;;;;4.43;0.52;;;6.80;99.90;;;;;;5059097;28;20013;-94
2022/02/01 09:48:59;;;;;;;3.17;0.70;;;8.70;99.90;;;;;;5074208;28;20028;-94
2022/02/01 09:51:25;;;;;;;0.98;0.35;;;8.70;99.90;;;;;;5055313;28;20045;-94
2022/02/01 09:54:15;;;;;;;3.75;0.95;;;5.70;99.90;;;;;;5055567;28;20370;-94
2022/02/01 10:07:03;;;;;;;2.85;0.95;;;6.10;99.90;;;;;;5074168;28;20055;-94
2022/02/01 10:09:29;;;;;;;2.78;0.70;;;8.30;99.90;;;;;;5057053;28;20025;-94
2022/02/01 10:11:56;;;;;;;2.08;1.00;;;11.30;99.90;;;;;;5060043;28;20042;-94
2022/02/01 10:15:15;;;;;;;3.60;1.52;;;3.70;99.90;;;;;;5038787;28;20041;-94
2022/02/01 10:18:00;;;;;;;13.15;1.20;;;7.10;99.90;;;;;;5073587;28;20032;-94
2022/02/01 10:20:52;;;;;;;9.10;1.48;;;8.30;99.90;;;;;;5055475;28;20043;-94
2022/02/01 10:24:05;;;;;;;3.10;1.25;;;7.50;99.90;;;;;;5073298;28;20025;-94
2022/02/01 10:26:33;;;;;;;7.68;1.85;;;7.40;99.90;;;;;;5055778;28;20084;-94
2022/02/01 10:31:35;;;;;;;8.73;1.42;;;9.00;99.90;;;;;;5074921;28;20024;-94
2022/02/01 10:38:09;;;;;;;5.30;1.70;;;8.00;99.90;;;;;;5072771;28;20044;-94
2022/02/01 10:40:56;;;;;;;6.97;1.05;;;7.60;99.90;;;;;;5072063;28;20056;-94
2022/02/01 10:43:24;;;;;;;4.93;0.95;;;6.80;99.90;;;;;;5054797;28;20096;-93
2022/02/01 10:45:52;;;;;;;4.28;0.75;;;7.90;99.90;;;;;;5056824;28;20033;-94
2022/02/01 10:48:33;;;;;;;5.30;1.00;;;7.80;99.90;;;;;;5040666;28;20017;-94
2022/02/01 10:57:31;;;;;;;4.82;1.23;;;6.90;99.90;;;;;;5074810;28;20047;-94
2022/02/01 10:59:57;;;;;;;7.13;0.95;;;11.00;99.90;;;;;;5056756;28;20029;-94
2022/02/01 11:06:10;;;;;;;13.50;1.50;;;8.40;99.90;;;;;;5075019;28;20060;-93
2022/02/01 11:08:39;;;;;;;5.43;1.30;;;10.00;99.90;;;;;;5054559;28;20005;-94
2022/02/01 11:11:06;;;;;;;8.60;0.88;;;7.20;99.90;;;;;;5057105;28;20021;-94
2022/02/01 11:13:43;;;;;;;14.10;1.40;;;9.90;99.90;;;;;;5058709;28;20021;-93
2022/02/01 11:16:18;;;;;;;3.67;1.17;;;8.00;99.90;;;;;;5058500;28;20073;-94
2022/02/01 11:19:07;;;;;;;12.75;1.50;;;6.30;99.90;;;;;;5057083;28;20080;-93
2022/02/01 11:21:53;;;;;;;6.97;1.05;;;5.60;99.90;;;;;;5057086;28;20013;-94
2022/02/01 11:24:36;;;;;;;3.67;0.77;;;8.90;99.90;;;;;;5038398;28;20040;-94
2022/02/01 11:27:17;;;;;;;11.65;2.28;;;7.30;99.90;;;;;;5076786;28;20017;-95
2022/02/01 11:32:37;;;;;;;11.48;1.15;;;7.70;99.90;;;;;;5061274;28;20029;-94
2022/02/01 11:35:20;;;;;;;19.05;2.92;;;8.30;99.90;;;;;;5055551;28;20017;-94
2022/02/01 11:37:54;;;;;;;9.93;1.20;;;7.90;99.90;;;;;;5055506;28;20005;-95
2022/02/01 11:40:23;;;;;;;20.55;1.10;;;7.80;99.90;;;;;;5055296;28;20009;-94
2022/02/01 11:43:05;;;;;;;15.00;2.30;;;7.70;99.90;;;;;;5058050;28;20021;-94
2022/02/01 11:45:34;;;;;;;14.02;1.73;;;8.10;99.90;;;;;;5056999;28;20029;-94
2022/02/01 11:48:03;;;;;;;13.40;3.03;;;11.20;99.90;;;;;;5058559;28;20056;-94
2022/02/01 11:50:29;;;;;;;13.82;1.55;;;9.80;99.90;;;;;;5058711;28;20211;-94
2022/02/01 11:53:37;;;;;;;9.23;1.20;;;6.50;99.90;;;;;;5057707;28;20029;-94
2022/02/01 11:56:05;;;;;;;10.68;1.35;;;8.70;99.90;;;;;;5055401;28;20036;-94
2022/02/01 11:58:36;;;;;;;15.30;1.38;;;8.20;99.90;;;;;;5058549;28;20052;-94
2022/02/01 12:01:06;;;;;;;15.40;2.22;;;11.10;99.90;;;;;;5058536;28;20025;-95
2022/02/01 12:03:39;;;;;;;11.35;1.48;;;9.70;99.90;;;;;;5059502;28;20004;-94
2022/02/01 12:06:18;;;;;;;14.90;1.20;;;8.50;99.90;;;;;;5060980;28;20021;-94
2022/02/01 12:08:44;;;;;;;11.15;1.13;;;8.30;99.90;;;;;;5058925;28;20056;-94
2022/02/01 12:11:13;;;;;;;12.77;1.02;;;10.40;99.90;;;;;;5058835;28;20029;-95
2022/02/01 12:13:39;;;;;;;11.93;1.55;;;10.20;99.90;;;;;;5041613;28;20029;-94
2022/02/01 12:16:15;;;;;;;9.07;1.75;;;9.80;99.90;;;;;;5058444;28;20032;-95
2022/02/01 12:18:58;;;;;;;10.27;1.10;;;11.50;99.90;;;;;;5056846;28;20093;-95
2022/02/01 12:21:29;;;;;;;11.52;1.58;;;11.60;99.90;;;;;;5063365;28;20090;-95
2022/02/01 12:23:57;;;;;;;6.45;1.05;;;11.80;99.90;;;;;;5062140;28;20005;-94
2022/02/01 12:26:28;;;;;;;5.78;0.55;;;10.00;99.90;;;;;;5061407;28;20029;-94
2022/02/01 12:28:59;;;;;;;12.68;0.98;;;9.20;99.90;;;;;;5062626;28;20001;-95
2022/02/01 12:31:28;;;;;;;8.20;2.53;;;9.90;99.90;;;;;;5062994;28;20001;-94
2022/02/01 12:33:56;;;;;;;;;;;9.80;99.90;;;;;;5063688;28;20005;-94
2022/02/01 12:36:31;;;;;;;5.78;0.70;;;9.90;99.90;;;;;;5080940;28;19952;-95
2022/02/01 12:39:04;;;;;;;4.32;1.40;;;10.80;99.90;;;;;;5063893;28;20089;-94
2022/02/01 12:41:40;;;;;;;4.55;0.52;;;8.80;99.90;;;;;;5063112;28;20025;-94
2022/02/01 12:47:01;;;;;;;6.10;0.22;;;8.70;99.90;;;;;;5080262;28;20021;-94
2022/02/01 12:49:45;;;;;;;6.18;0.98;;;9.40;99.90;;;;;;5059397;28;20025;-95
2022/02/01 12:52:25;;;;;;;7.78;1.00;;;7.90;99.90;;;;;;5058792;28;20032;-94
2022/02/01 12:55:01;;;;;;;7.22;0.45;;;8.90;99.90;;;;;;5077974;28;20029;-94
2022/02/01 12:57:28;;;;;;;7.40;0.40;;;9.40;99.90;;;;;;5061405;28;20029;-95
2022/02/01 12:59:58;;;;;;;10.25;0.30;;;9.50;99.90;;;;;;5062132;28;20037;-95
2022/02/01 13:02:29;;;;;;;4.97;0.55;;;10.00;99.90;;;;;;5061157;28;20106;-94
2022/02/01 13:04:57;;;;;;;7.07;0.57;;;12.40;99.90;;;;;;5061489;28;20032;-95
2022/02/01 13:07:48;;;;;;;6.43;0.17;;;8.90;99.90;;;;;;5059847;28;20025;-94
2022/02/01 13:21:18;;;;;;;7.57;0.80;;;7.40;99.90;;;;;;5051413;28;20044;-95
2022/02/01 13:23:55;;;;;;;4.85;0.38;;;9.10;99.90;;;;;;5061966;28;20017;-95
2022/02/01 13:26:30;;;;;;;3.15;0.35;;;9.10;99.90;;;;;;5061452;28;20052;-94
2022/02/01 13:29:00;;;;;;;2.20;0.25;;;9.40;99.90;;;;;;5060678;28;20021;-95
2022/02/01 13:31:29;;;;;;;4.38;0.10;;;8.70;99.90;;;;;;5060632;28;20026;-95
2022/02/01 13:33:58;;;;;;;;;;;10.20;99.90;;;;;;5062051;28;20021;-94
2022/02/01 13:36:25;;;;;;;7.22;0.80;;;10.30;99.90;;;;;;5061628;28;19900;-94
2022/02/01 13:39:05;;;;;;;6.78;0.88;;;9.40;99.90;;;;;;5061406;28;20036;-95
2022/02/01 13:41:36;;;;;;;5.93;0.73;;;;;;;;;;5058108;28;20045;-95
2022/02/01 13:44:03;;;;;;;6.22;1.02;;;9.30;99.90;;;;;;5059482;28;20028;-94
2022/02/01 13:46:33;;;;;;;3.28;0.20;;;9.30;99.90;;;;;;5060196;28;20025;-94
2022/02/01 13:49:07;;;;;;;1.15;0.40;;;10.50;99.90;;;;;;5063553;28;20024;-94
2022/02/01 13:51:53;;;;;;;9.35;0.57;;;8.80;99.90;;;;;;5063242;28;20018;-93
2022/02/01 13:54:20;;;;;;;6.95;0.57;;;9.30;99.90;;;;;;5062943;28;20044;-94
2022/02/01 13:56:52;;;;;;;2.75;0.17;;;11.30;99.90;;;;;;5062716;28;20009;-94
2022/02/01 13:59:31;;;;;;;3.60;0.10;;;9.80;99.90;;;;;;5062328;28;20048;-94
2022/02/01 14:02:02;;;;;;;8.85;0.10;;;12.10;99.90;;;;;;5062307;28;20017;-95
2022/02/01 14:04:40;;;;;;;2.88;0.73;;;10.70;99.90;;;;;;5061454;28;20051;-95
2022/02/01 14:36:12;;;;;;;6.68;1.05;;;9.50;99.90;;;;;;5079290;28;20028;-93
2022/02/01 14:46:41;;;;;;;18.13;1.58;;;10.90;99.90;;;;;;5078996;28;20105;-94
2022/02/01 14:49:07;;;;;;;8.98;1.00;;;10.10;99.90;;;;;;5061620;28;20005;-94
2022/02/01 14:51:34;;;;;;;8.00;1.67;;;8.90;99.90;;;;;;5061429;28;20005;-94
2022/02/01 14:54:08;;;;;;;6.15;0.50;;;9.30;99.90;;;;;;5078769;28;20032;-94
2022/02/01 15:04:32;;;;;;;9.63;0.68;;;9.80;99.90;;;;;;5059991;28;20048;-94
2022/02/01 15:12:38;;;;;;;14.55;1.83;;;9.80;99.90;;;;;;5077991;28;20068;-93
2022/02/01 15:15:04;;;;;;;12.60;1.02;;;10.20;99.90;;;;;;5078001;28;20009;-94
2022/02/01 15:17:30;;;;;;;8.88;0.40;;;9.90;99.90;;;;;;5060982;28;20024;-95
2022/02/01 15:19:59;;;;;;;15.13;1.23;;;11.40;99.90;;;;;;5060385;28;20076;-94
2022/02/01 15:22:26;;;;;;;8.50;1.67;;;12.30;99.90;;;;;;5061254;28;20034;-93
2022/02/01 15:24:51;;;;;;;13.18;0.35;;;9.40;99.90;;;;;;5068670;23;20013;-75
2022/02/01 15:27:18;;;;;;;13.25;0.40;;;9.40;99.90;;;;;;5035371;28;20478;-76
2022/02/01 15:29:45;;;;;;;9.20;0.82;;;9.50;99.90;;;;;;5053458;28;20021;-76
2022/02/01 15:32:11;;;;;;;4.55;1.38;;;9.50;99.90;;;;;;5053091;28;20036;-76
2022/02/01 15:34:37;;;;;;;7.43;0.25;;;9.40;99.90;;;;;;5053286;28;20029;-76
2022/02/01 15:37:04;;;;;;;8.88;0.55;;;9.40;99.90;;;;;;5053391;28;20021;-76
2022/02/01 15:54:23;;;;;;;15.07;0.95;;;9.40;99.90;;;;;;5053927;28;20476;-77
2022/02/01 15:58:17;;;;;;;11.63;0.63;;;9.50;99.90;;;;;;5057300;28;20466;-76
2022/02/01 16:00:43;;;;;;;11.75;0.98;;;9.50;99.90;;;;;;5038916;28;20543;-76
2022/02/01 16:03:20;;;;;;;14.73;0.80;;;9.50;99.90;;;;;;5056848;28;20063;-77
2022/02/01 16:05:46;;;;;;;12.20;1.25;;;9.50;99.90;;;;;;5039076;28;20394;-77
2022/02/01 16:08:24;;;;;;;11.05;1.27;;;9.50;99.90;;;;;;5056905;28;20021;-77
2022/02/01 16:10:55;;;;;;;5.03;0.82;;;9.50;99.90;;;;;;5038980;28;20033;-77
2022/02/01 16:13:34;;;;;;;8.38;0.60;;;9.50;99.90;;;;;;5056636;28;20028;-77
2022/02/01 16:16:07;;;;;;;12.52;0.10;;;9.60;99.90;;;;;;5038752;28;20076;-76